Aroma, Missouri
Current Conditions -  °F | °C
As of 10:35 PM on Sunday 21 Dec 2014 (Local Time) from KHFJ Reporting Station
Overcast Overcast  
Wind Chill: 34°   Ceiling: 2500
Heat Index: 41°   Visibility: 7mi
Dew Point: 37°   Wind: 12mph
Humidity: 87%   Direction: 140°SE
Pressure: 29.81"   Gusts: NA
Location:  36.8998°N, 94.263°W
Report Text: KHFJ 220435Z AUTO 14010KT 7SM BKN025 OVC035 05/03 A2981 RMK AO2
Loading
Personal Weather Stations






























Interactive Weather Map New forecast layout! Learn more

10-Day Weather Forecast

Advertisements
Track Severe Weather on mobile